EGXW/WTN METAR and TAF weather

Enter ICAO airport designator
Station Type Date Time Source
EGXW METAR 2022/01/19 18:50 UTC NOAA

EGXW 191850Z AUTO 31008KT 9999 NCD 05/01 Q1027


Station Type Date Time Source
EGXW Decoded METAR 2022/01/19 18:50 UTC NOAA

Waddington, United Kingdom (EGXW) 53-10N 000-31W 0M
Jan 19, 2022 - 01:50 PM EST / 2022.01.19 1850 UTC
Wind: from the NW (310 degrees) at 9 MPH (8 KT):0
Visibility: greater than 7 mile(s):0
Temperature: 41 F (5 C)
Dew Point: 33 F (1 C)
Relative Humidity: 75%
Pressure (altimeter): 30.33 in. Hg (1027 hPa)
ob: EGXW 191850Z AUTO 31008KT 9999 NCD 05/01 Q1027
cycle: 19

Station Type Date Time Source
EGXW TAF 2022/01/19 18:41 UTC NOAA

TAF EGXW 191632Z 1918/2012 33012KT 9999 FEW035 PROB30
TEMPO 2000/2003 -SHRA SCT020

Example: see airport list